createdAt,value
2023-03-29T00:02:49.429Z,5.00
2023-03-29T00:05:57.745Z,5.00
2023-03-29T00:09:21.925Z,5.25
2023-03-29T00:12:27.183Z,8.00
2023-03-29T00:15:31.655Z,8.00
2023-03-29T00:18:38.649Z,5.50
2023-03-29T00:21:44.775Z,10.75
2023-03-29T00:24:57.724Z,13.75
2023-03-29T00:28:02.640Z,6.50
2023-03-29T00:31:09.357Z,10.00
2023-03-29T00:34:16.599Z,10.75
2023-03-29T00:37:27.217Z,6.50
2023-03-29T00:40:36.372Z,6.00
2023-03-29T00:43:56.057Z,7.25
2023-03-29T00:47:00.938Z,7.00
2023-03-29T00:50:14.690Z,4.50
2023-03-29T00:53:23.140Z,5.50
2023-03-29T00:56:37.629Z,16.00
2023-03-29T00:59:44.614Z,10.25
2023-03-29T01:02:54.981Z,10.00
2023-03-29T01:06:04.213Z,16.00
2023-03-29T01:09:13.225Z,9.50
2023-03-29T01:12:22.528Z,7.25
2023-03-29T01:15:30.815Z,24.25
2023-03-29T01:18:37.769Z,27.25
2023-03-29T01:21:49.647Z,28.50
2023-03-29T01:25:07.977Z,18.75
2023-03-29T01:28:20.816Z,18.75
2023-03-29T01:31:29.109Z,33.50
2023-03-29T01:34:40.593Z,21.25
2023-03-29T01:37:53.127Z,15.75
2023-03-29T01:40:58.939Z,17.00
2023-03-29T01:44:10.473Z,13.00
2023-03-29T01:47:25.455Z,35.25
2023-03-29T01:50:39.949Z,27.25
2023-03-29T01:53:50.918Z,17.75
2023-03-29T01:56:58.270Z,16.25
2023-03-29T02:00:11.322Z,34.00
2023-03-29T02:03:22.114Z,15.25
2023-03-29T02:06:29.736Z,18.00
2023-03-29T02:09:38.069Z,17.25
2023-03-29T02:12:42.788Z,20.75
2023-03-29T02:15:50.531Z,17.25
2023-03-29T02:18:58.236Z,19.25
2023-03-29T02:22:06.784Z,19.50
2023-03-29T02:25:13.945Z,23.00
2023-03-29T02:28:19.031Z,26.25
2023-03-29T02:31:29.815Z,19.00
2023-03-29T02:34:40.304Z,12.75
2023-03-29T02:37:49.676Z,16.25
2023-03-29T02:40:55.962Z,16.00
2023-03-29T02:44:05.206Z,20.00
2023-03-29T02:47:18.628Z,22.50
2023-03-29T02:50:25.035Z,23.75
2023-03-29T02:53:35.083Z,20.50
2023-03-29T02:56:48.508Z,16.50
2023-03-29T02:59:54.345Z,12.50
2023-03-29T03:03:02.107Z,15.00
2023-03-29T03:06:10.710Z,15.75
2023-03-29T03:09:15.756Z,16.00
2023-03-29T03:12:23.239Z,13.00
2023-03-29T03:15:28.316Z,8.00
2023-03-29T03:18:35.713Z,20.00
2023-03-29T03:21:40.300Z,22.00
2023-03-29T03:24:48.161Z,13.50
2023-03-29T03:27:55.590Z,33.25
2023-03-29T03:31:01.532Z,25.50
2023-03-29T03:34:26.797Z,22.50
2023-03-29T03:37:36.025Z,41.00
2023-03-29T03:40:44.460Z,37.25
2023-03-29T03:43:50.181Z,21.00
2023-03-29T03:46:55.253Z,20.75
2023-03-29T03:50:00.602Z,20.25
2023-03-29T03:53:05.723Z,13.00
2023-03-29T03:56:32.409Z,17.00
2023-03-29T03:59:49.261Z,31.75
2023-03-29T04:03:02.564Z,33.25
2023-03-29T04:06:10.402Z,29.75
2023-03-29T04:09:46.073Z,38.50
2023-03-29T04:13:04.765Z,57.50
2023-03-29T04:16:13.143Z,76.00
2023-03-29T04:19:21.988Z,44.50
2023-03-29T04:22:28.137Z,45.25
2023-03-29T04:25:32.643Z,41.50
2023-03-29T04:28:39.099Z,46.25
2023-03-29T04:31:58.038Z,49.00
2023-03-29T04:35:27.373Z,48.25
2023-03-29T04:38:36.326Z,44.50
2023-03-29T04:41:41.660Z,31.50
2023-03-29T04:44:57.659Z,62.67
2023-03-29T04:48:17.274Z,66.33
2023-03-29T04:51:24.830Z,48.00
2023-03-29T04:54:32.501Z,21.00
2023-03-29T04:57:51.536Z,30.00
2023-03-29T05:00:59.504Z,44.75
2023-03-29T05:04:12.982Z,12.25
2023-03-29T05:07:27.716Z,36.25
2023-03-29T05:10:33.596Z,45.50
2023-03-29T05:13:37.880Z,56.50
2023-03-29T05:16:42.882Z,94.00
2023-03-29T05:19:48.147Z,87.00
2023-03-29T05:23:03.597Z,185.00
2023-03-29T05:26:35.650Z,129.00
2023-03-29T05:29:41.421Z,180.00
2023-03-29T05:33:00.505Z,219.00
2023-03-29T05:36:09.535Z,179.75
2023-03-29T05:39:18.965Z,129.00
2023-03-29T05:42:28.550Z,169.25
2023-03-29T05:45:36.263Z,205.25
2023-03-29T05:49:03.621Z,164.75
2023-03-29T05:52:26.823Z,210.75
2023-03-29T05:55:31.164Z,156.25
2023-03-29T05:59:01.401Z,83.00
2023-03-29T06:02:07.016Z,64.50
2023-03-29T06:05:16.223Z,66.00
2023-03-29T06:08:34.225Z,38.50
2023-03-29T06:12:01.987Z,16.50
2023-03-29T06:15:16.731Z,17.00
2023-03-29T06:18:25.353Z,16.75
2023-03-29T06:21:29.512Z,15.00
2023-03-29T06:24:36.900Z,15.25
2023-03-29T06:28:52.200Z,35.00
2023-03-29T06:31:58.856Z,5.00
2023-03-29T06:36:38.740Z,8.25
2023-03-29T06:40:14.696Z,6.75
2023-03-29T06:43:21.302Z,8.50
2023-03-29T06:46:43.138Z,10.00
2023-03-29T06:49:59.707Z,7.75
2023-03-29T06:53:18.075Z,19.75
2023-03-29T07:00:45.942Z,10.00
2023-03-29T07:08:15.615Z,7.00
2023-03-29T07:11:36.576Z,10.50
2023-03-29T07:19:09.727Z,7.00
2023-03-29T07:27:06.041Z,16.50
2023-03-29T07:30:16.918Z,26.25
2023-03-29T07:33:25.884Z,12.00
2023-03-29T07:36:51.720Z,7.00
2023-03-29T07:39:59.804Z,9.00
2023-03-29T07:43:38.011Z,9.00
2023-03-29T07:46:47.589Z,7.75
2023-03-29T07:49:52.593Z,19.50
2023-03-29T07:53:38.740Z,10.00
2023-03-29T07:57:37.178Z,7.00
2023-03-29T08:09:17.218Z,13.75
2023-03-29T08:12:41.134Z,5.00
2023-03-29T08:15:53.737Z,46.25
2023-03-29T08:19:09.555Z,10.25
2023-03-29T08:22:54.291Z,8.25
2023-03-29T08:26:24.252Z,12.50
2023-03-29T08:29:29.481Z,13.50
2023-03-29T08:32:36.893Z,6.50
2023-03-29T08:35:46.865Z,12.00
2023-03-29T08:38:58.603Z,6.00
2023-03-29T08:42:21.260Z,13.25
2023-03-29T08:45:35.621Z,15.75
2023-03-29T08:48:46.848Z,12.75
2023-03-29T08:51:59.752Z,21.25
2023-03-29T08:55:09.555Z,21.50
2023-03-29T08:58:36.233Z,18.75
2023-03-29T09:01:46.783Z,15.00
2023-03-29T09:05:03.278Z,11.50
2023-03-29T09:08:25.026Z,32.00
2023-03-29T09:11:44.890Z,4.50
2023-03-29T09:15:12.314Z,10.75
2023-03-29T09:18:34.278Z,6.00
2023-03-29T09:21:47.950Z,8.00
2023-03-29T09:25:07.472Z,8.25
2023-03-29T09:28:20.499Z,15.50
2023-03-29T09:31:35.415Z,6.00
2023-03-29T09:34:46.258Z,9.50
2023-03-29T09:38:01.670Z,21.00
2023-03-29T09:41:20.320Z,16.50
2023-03-29T09:44:31.260Z,11.00
2023-03-29T09:47:47.286Z,14.00
2023-03-29T09:50:53.344Z,12.25
2023-03-29T09:54:01.217Z,12.00
2023-03-29T09:57:33.629Z,18.00
2023-03-29T10:00:49.301Z,17.25
2023-03-29T10:03:54.701Z,11.25
2023-03-29T10:07:01.567Z,6.00
2023-03-29T10:10:11.977Z,11.50
2023-03-29T10:13:24.590Z,7.25
2023-03-29T10:16:32.021Z,6.00
2023-03-29T10:19:40.132Z,9.00
2023-03-29T10:22:51.282Z,13.75
2023-03-29T10:25:58.015Z,12.75
2023-03-29T10:29:06.398Z,19.00
2023-03-29T10:32:20.108Z,23.25
2023-03-29T10:35:30.624Z,7.00
2023-03-29T10:38:37.750Z,5.50
2023-03-29T10:41:45.127Z,6.75
2023-03-29T10:44:55.724Z,10.00
2023-03-29T10:48:00.955Z,51.00
2023-03-29T10:51:07.795Z,31.00
2023-03-29T10:54:16.173Z,11.75
2023-03-29T10:57:35.621Z,15.25
2023-03-29T11:00:51.316Z,8.00
2023-03-29T11:04:11.520Z,1.00
2023-03-29T11:07:28.885Z,10.00
2023-03-29T11:10:44.969Z,4.50
2023-03-29T11:14:01.650Z,5.00
2023-03-29T11:17:20.786Z,7.00
2023-03-29T11:20:38.007Z,5.00
2023-03-29T11:23:51.437Z,24.25
2023-03-29T11:27:11.330Z,25.50
2023-03-29T11:30:27.368Z,22.00
2023-03-29T11:33:43.276Z,19.50
2023-03-29T11:36:54.221Z,16.00
2023-03-29T11:40:10.171Z,5.50
2023-03-29T11:43:20.696Z,13.00
2023-03-29T11:46:36.144Z,17.50
2023-03-29T11:49:49.334Z,11.50
2023-03-29T11:52:57.883Z,4.00
2023-03-29T11:56:11.090Z,7.00
2023-03-29T11:59:20.036Z,13.25
2023-03-29T12:02:36.896Z,15.00
2023-03-29T12:05:48.471Z,8.50
2023-03-29T12:08:58.843Z,10.25
2023-03-29T12:12:10.456Z,6.25
2023-03-29T12:15:20.585Z,1.00
2023-03-29T12:18:32.199Z,9.75
2023-03-29T12:21:38.996Z,9.00
2023-03-29T12:24:46.127Z,12.25
2023-03-29T12:28:07.900Z,28.00
2023-03-29T12:31:26.278Z,13.50
2023-03-29T12:34:54.911Z,14.00
2023-03-29T12:38:24.489Z,8.50
2023-03-29T12:41:51.963Z,32.00
2023-03-29T12:45:39.039Z,41.00
2023-03-29T12:48:57.438Z,11.50
2023-03-29T13:00:51.237Z,7.50
2023-03-29T13:04:16.403Z,18.75
2023-03-29T13:07:34.056Z,30.75
2023-03-29T13:10:43.613Z,20.00
2023-03-29T13:13:52.533Z,2.00
2023-03-29T13:17:18.382Z,19.75
2023-03-29T13:20:43.510Z,13.00
2023-03-29T13:24:08.936Z,41.75
2023-03-29T13:27:30.545Z,6.00
2023-03-29T13:30:47.641Z,20.75
2023-03-29T13:34:04.381Z,19.00
2023-03-29T13:37:34.718Z,16.50
2023-03-29T13:41:04.723Z,19.25
2023-03-29T13:44:35.335Z,13.00
2023-03-29T13:47:58.767Z,7.50
2023-03-29T13:51:28.457Z,6.50
2023-03-29T13:54:40.553Z,40.50
2023-03-29T13:58:07.344Z,31.75
2023-03-29T14:01:20.589Z,6.75
2023-03-29T14:04:36.442Z,8.50
2023-03-29T14:07:46.853Z,5.25
2023-03-29T14:10:54.669Z,5.50
2023-03-29T14:14:08.526Z,7.00
2023-03-29T14:17:20.552Z,12.50
2023-03-29T14:20:25.597Z,3.00
2023-03-29T14:23:34.010Z,5.50
2023-03-29T14:26:38.534Z,16.25
2023-03-29T14:29:47.734Z,8.00
2023-03-29T14:32:52.686Z,6.75
2023-03-29T14:35:57.456Z,8.50
2023-03-29T14:39:05.814Z,7.00
2023-03-29T14:42:20.835Z,11.50
2023-03-29T14:45:30.512Z,5.00
2023-03-29T14:48:39.271Z,19.25
2023-03-29T14:51:47.349Z,28.50
2023-03-29T14:55:10.803Z,34.75
2023-03-29T14:58:22.866Z,1.25
2023-03-29T15:01:30.781Z,18.75
2023-03-29T15:04:37.867Z,13.50
2023-03-29T15:07:45.049Z,24.25
2023-03-29T15:10:52.261Z,11.75
2023-03-29T15:14:03.907Z,11.25
2023-03-29T15:17:43.114Z,13.75
2023-03-29T15:20:56.678Z,8.00
2023-03-29T15:24:02.125Z,19.00
2023-03-29T15:27:14.802Z,20.50
2023-03-29T15:30:21.792Z,11.25
2023-03-29T15:33:34.743Z,26.25
2023-03-29T15:36:42.904Z,15.00
2023-03-29T15:39:48.573Z,26.25
2023-03-29T15:46:23.967Z,8.50
2023-03-29T15:49:38.364Z,28.75
2023-03-29T15:52:43.401Z,8.00
2023-03-29T15:55:50.788Z,19.75
2023-03-29T15:58:55.252Z,8.50
2023-03-29T16:02:01.381Z,13.00
2023-03-29T16:05:11.250Z,7.25
2023-03-29T16:08:15.993Z,14.25
2023-03-29T16:11:22.517Z,12.50
2023-03-29T16:14:37.673Z,9.25
2023-03-29T16:17:57.634Z,12.25
2023-03-29T16:21:23.530Z,10.25
2023-03-29T16:28:31.583Z,18.75
2023-03-29T16:35:53.811Z,21.00
2023-03-29T16:38:59.925Z,18.25
2023-03-29T16:42:15.245Z,23.25
2023-03-29T16:45:27.487Z,21.25
2023-03-29T16:48:32.217Z,29.00
2023-03-29T16:51:36.517Z,54.25
2023-03-29T16:54:44.164Z,41.50
2023-03-29T16:57:51.008Z,24.75
2023-03-29T17:00:58.152Z,44.00
2023-03-29T17:04:11.085Z,34.75
2023-03-29T17:07:15.211Z,27.00
2023-03-29T17:10:24.730Z,52.75
2023-03-29T17:13:32.029Z,59.75
2023-03-29T17:16:38.427Z,48.00
2023-03-29T17:19:44.268Z,54.50
2023-03-29T17:22:52.730Z,22.50
2023-03-29T17:26:01.627Z,42.25
2023-03-29T17:29:08.693Z,54.00
2023-03-29T17:32:13.344Z,38.25
2023-03-29T17:35:18.990Z,59.00
2023-03-29T17:38:27.177Z,59.25
2023-03-29T17:41:36.369Z,43.50
2023-03-29T17:44:41.541Z,52.25
2023-03-29T17:47:46.142Z,57.00
2023-03-29T17:50:50.936Z,51.75
2023-03-29T17:53:57.236Z,34.25
2023-03-29T17:57:04.741Z,44.00
2023-03-29T18:00:12.880Z,49.75
2023-03-29T18:03:19.528Z,36.00
2023-03-29T18:06:23.991Z,59.25
2023-03-29T18:09:30.631Z,101.33
2023-03-29T18:12:38.901Z,68.75
2023-03-29T18:15:46.541Z,54.75
2023-03-29T18:18:52.502Z,59.25
2023-03-29T18:22:00.138Z,63.75
2023-03-29T18:25:09.570Z,96.00
2023-03-29T18:28:16.410Z,86.33
2023-03-29T18:31:29.007Z,126.33
2023-03-29T18:34:35.048Z,67.50
2023-03-29T18:37:40.588Z,94.67
2023-03-29T18:40:46.253Z,47.50
2023-03-29T18:43:57.777Z,56.00
2023-03-29T18:47:05.234Z,56.50
2023-03-29T18:50:12.844Z,43.75
2023-03-29T18:53:29.023Z,55.25
2023-03-29T18:56:42.191Z,49.50
2023-03-29T19:00:12.827Z,38.50
2023-03-29T19:03:17.296Z,54.25
2023-03-29T19:06:22.014Z,48.50
2023-03-29T19:09:30.602Z,38.25
2023-03-29T19:12:37.401Z,62.00
2023-03-29T19:15:45.782Z,199.50
2023-03-29T19:18:51.929Z,96.00
2023-03-29T19:22:02.369Z,40.00
2023-03-29T19:25:14.047Z,32.75
2023-03-29T19:31:49.657Z,32.75
2023-03-29T19:35:10.972Z,39.00
2023-03-29T19:39:02.507Z,28.50
2023-03-29T19:42:09.744Z,16.00
2023-03-29T19:45:13.692Z,19.25
2023-03-29T19:48:23.938Z,18.00
2023-03-29T19:51:28.951Z,24.00
2023-03-29T19:54:33.024Z,15.00
2023-03-29T19:57:42.805Z,15.25
2023-03-29T20:00:47.241Z,14.50
2023-03-29T20:03:52.863Z,16.00
2023-03-29T20:07:02.165Z,15.75
2023-03-29T20:10:06.862Z,23.00
2023-03-29T20:13:11.579Z,24.25
2023-03-29T20:16:17.322Z,31.50
2023-03-29T20:19:36.724Z,26.75
2023-03-29T20:22:45.592Z,27.75
2023-03-29T20:25:50.955Z,48.50
2023-03-29T20:28:55.634Z,31.50
2023-03-29T20:32:00.230Z,29.25
2023-03-29T20:35:21.489Z,16.00
2023-03-29T20:38:27.916Z,18.50
2023-03-29T20:41:35.907Z,19.50
2023-03-29T20:44:40.420Z,16.75
2023-03-29T20:47:50.613Z,15.75
2023-03-29T20:51:04.701Z,19.75
2023-03-29T20:54:11.538Z,25.50
2023-03-29T20:57:18.102Z,17.75
2023-03-29T21:00:25.135Z,30.50
2023-03-29T21:03:29.674Z,28.75
2023-03-29T21:06:40.120Z,33.75
2023-03-29T21:09:48.480Z,38.25
2023-03-29T21:12:54.495Z,39.00
2023-03-29T21:15:58.816Z,42.50
2023-03-29T21:19:02.965Z,41.75
2023-03-29T21:22:09.080Z,39.00
2023-03-29T21:25:15.675Z,42.00
2023-03-29T21:28:22.545Z,38.25
2023-03-29T21:31:28.411Z,31.50
2023-03-29T21:34:32.429Z,49.75
2023-03-29T21:37:37.625Z,40.00
2023-03-29T21:40:41.746Z,53.75
2023-03-29T21:43:47.272Z,66.25
2023-03-29T21:46:56.126Z,67.50
2023-03-29T21:50:01.239Z,61.00
2023-03-29T21:53:08.781Z,62.00
2023-03-29T21:56:16.257Z,58.00
2023-03-29T21:59:20.745Z,65.25
2023-03-29T22:02:26.034Z,42.00
2023-03-29T22:05:30.833Z,54.50
2023-03-29T22:08:38.997Z,47.25
2023-03-29T22:11:46.129Z,53.25
2023-03-29T22:14:50.383Z,42.00
2023-03-29T22:17:57.878Z,37.50
2023-03-29T22:21:08.897Z,38.75
2023-03-29T22:24:14.918Z,39.25
2023-03-29T22:27:19.298Z,44.75
2023-03-29T22:30:23.800Z,38.00
2023-03-29T22:33:27.420Z,37.25
2023-03-29T22:36:33.250Z,49.50
2023-03-29T22:39:39.108Z,33.50
2023-03-29T22:42:43.334Z,36.75
2023-03-29T22:45:47.170Z,33.00
2023-03-29T22:48:53.392Z,39.50
2023-03-29T22:51:58.177Z,41.75
2023-03-29T22:55:03.619Z,28.00
2023-03-29T22:58:07.446Z,33.25
2023-03-29T23:01:12.117Z,32.25
2023-03-29T23:04:16.427Z,30.00
2023-03-29T23:07:21.471Z,36.25
2023-03-29T23:10:29.098Z,37.75
2023-03-29T23:13:35.493Z,51.25
2023-03-29T23:16:42.434Z,53.00
2023-03-29T23:19:46.769Z,56.50
2023-03-29T23:22:50.607Z,52.75
2023-03-29T23:25:58.002Z,42.00
2023-03-29T23:29:02.500Z,31.75
2023-03-29T23:32:06.977Z,30.75
2023-03-29T23:35:11.382Z,33.75
2023-03-29T23:38:15.556Z,36.50
2023-03-29T23:41:21.073Z,34.00
2023-03-29T23:44:27.896Z,37.00
2023-03-29T23:47:31.914Z,37.75
2023-03-29T23:50:36.046Z,34.25
2023-03-29T23:53:40.560Z,40.25
2023-03-29T23:56:46.898Z,38.25
2023-03-29T23:59:52.856Z,32.50
